createdAt,value
2023-09-10T00:00:41.105Z,0
2023-09-10T00:04:06.329Z,0
2023-09-10T00:07:31.532Z,0
2023-09-10T00:10:56.744Z,0
2023-09-10T00:14:21.897Z,0
2023-09-10T00:17:47.110Z,0
2023-09-10T00:21:13.111Z,0
2023-09-10T00:24:38.301Z,0
2023-09-10T00:28:03.457Z,0
2023-09-10T00:31:28.638Z,0
2023-09-10T00:34:53.832Z,0
2023-09-10T00:38:19.019Z,0
2023-09-10T00:41:44.136Z,0
2023-09-10T00:45:09.320Z,0
2023-09-10T00:48:34.534Z,0
2023-09-10T00:51:59.708Z,0
2023-09-10T00:55:24.954Z,0
2023-09-10T00:58:50.095Z,0
2023-09-10T01:02:15.428Z,0
2023-09-10T01:05:40.465Z,0
2023-09-10T01:09:05.686Z,0
2023-09-10T01:12:30.912Z,0
2023-09-10T01:15:56.059Z,0
2023-09-10T01:19:21.262Z,0
2023-09-10T01:22:46.451Z,0
2023-09-10T01:26:11.708Z,0
2023-09-10T01:29:36.850Z,0
2023-09-10T01:33:01.998Z,0
2023-09-10T01:36:27.161Z,0
2023-09-10T01:39:52.321Z,0
2023-09-10T01:43:17.494Z,0
2023-09-10T01:46:42.743Z,0
2023-09-10T01:50:07.879Z,0
2023-09-10T01:53:33.047Z,0
2023-09-10T01:56:58.236Z,0
2023-09-10T02:00:23.434Z,0
2023-09-10T02:03:48.670Z,0
2023-09-10T02:07:13.807Z,0
2023-09-10T02:10:38.999Z,0
2023-09-10T02:14:04.196Z,0
2023-09-10T02:17:29.354Z,0
2023-09-10T02:20:54.615Z,0
2023-09-10T02:24:19.765Z,0
2023-09-10T02:27:44.935Z,0
2023-09-10T02:31:10.124Z,0
2023-09-10T02:34:35.307Z,0
2023-09-10T02:38:00.592Z,0
2023-09-10T02:41:25.596Z,0
2023-09-10T02:44:50.772Z,0
2023-09-10T02:48:15.944Z,0
2023-09-10T02:51:41.097Z,0
2023-09-10T02:55:06.291Z,0
2023-09-10T02:58:31.446Z,0
2023-09-10T03:01:56.613Z,0
2023-09-10T03:05:21.784Z,0
2023-09-10T03:08:46.938Z,0
2023-09-10T03:12:12.139Z,0
2023-09-10T03:15:37.314Z,0
2023-09-10T03:19:02.460Z,0
2023-09-10T03:22:27.635Z,0
2023-09-10T03:25:52.838Z,0
2023-09-10T03:29:18.023Z,0
2023-09-10T03:32:43.303Z,0
2023-09-10T03:36:08.361Z,0
2023-09-10T03:39:33.504Z,0
2023-09-10T03:42:58.676Z,0
2023-09-10T03:46:23.925Z,0
2023-09-10T03:49:49.051Z,0
2023-09-10T03:53:14.191Z,0
2023-09-10T03:56:39.323Z,0
2023-09-10T04:00:04.485Z,0
2023-09-10T04:03:29.838Z,0
2023-09-10T04:06:54.847Z,0
2023-09-10T04:10:19.999Z,0
2023-09-10T04:13:45.198Z,0
2023-09-10T04:17:10.429Z,0
2023-09-10T04:20:35.561Z,0
2023-09-10T04:24:00.697Z,0
2023-09-10T04:27:25.872Z,0
2023-09-10T04:30:51.079Z,0
2023-09-10T04:34:16.221Z,0
2023-09-10T04:37:41.411Z,0
2023-09-10T04:41:06.574Z,0
2023-09-10T04:44:31.738Z,0
2023-09-10T04:47:56.910Z,0
2023-09-10T04:51:22.080Z,0
2023-09-10T04:54:47.293Z,0
2023-09-10T04:58:12.422Z,0
2023-09-10T05:01:37.682Z,0
2023-09-10T05:05:02.807Z,0
2023-09-10T05:08:28.008Z,0
2023-09-10T05:11:53.215Z,0
2023-09-10T05:15:18.348Z,0
2023-09-10T05:18:43.534Z,0
2023-09-10T05:22:08.667Z,0
2023-09-10T05:25:33.840Z,0
2023-09-10T05:28:59.088Z,0
2023-09-10T05:32:24.236Z,0
2023-09-10T05:35:49.350Z,0
2023-09-10T05:39:14.510Z,0
2023-09-10T05:42:39.676Z,0
2023-09-10T05:46:07.221Z,0
2023-09-10T05:49:30.062Z,0
2023-09-10T05:52:55.280Z,6
2023-09-10T05:56:20.495Z,6
2023-09-10T05:59:45.610Z,6
2023-09-10T06:03:10.961Z,6
2023-09-10T06:06:35.992Z,6
2023-09-10T06:10:01.197Z,6
2023-09-10T06:13:26.374Z,6
2023-09-10T06:16:51.590Z,6
2023-09-10T06:20:17.110Z,6
2023-09-10T06:23:42.272Z,6
2023-09-10T06:27:07.470Z,6
2023-09-10T06:30:32.681Z,6
2023-09-10T06:33:57.873Z,6
2023-09-10T06:37:23.097Z,6
2023-09-10T06:40:48.315Z,6
2023-09-10T06:44:13.530Z,6
2023-09-10T06:47:38.691Z,11
2023-09-10T06:51:03.844Z,11
2023-09-10T06:54:29.042Z,11
2023-09-10T06:57:54.161Z,11
2023-09-10T07:01:19.361Z,11
2023-09-10T07:04:44.547Z,11
2023-09-10T07:08:09.759Z,11
2023-09-10T07:11:34.947Z,11
2023-09-10T07:15:00.147Z,11
2023-09-10T07:18:25.373Z,11
2023-09-10T07:21:50.575Z,11
2023-09-10T07:25:15.770Z,11
2023-09-10T07:28:41.162Z,11
2023-09-10T07:32:06.210Z,11
2023-09-10T07:35:31.378Z,11
2023-09-10T07:38:56.613Z,11
2023-09-10T07:42:21.821Z,17
2023-09-10T07:45:47.095Z,17
2023-09-10T07:49:12.202Z,17
2023-09-10T07:52:37.448Z,17
2023-09-10T07:56:02.659Z,17
2023-09-10T07:59:27.840Z,17
2023-09-10T08:02:53.120Z,17
2023-09-10T08:06:18.286Z,17
2023-09-10T08:09:43.502Z,17
2023-09-10T08:13:08.727Z,17
2023-09-10T08:16:33.974Z,17
2023-09-10T08:19:59.221Z,17
2023-09-10T08:23:24.369Z,17
2023-09-10T08:26:49.594Z,17
2023-09-10T08:30:14.759Z,17
2023-09-10T08:33:39.994Z,17
2023-09-10T08:37:05.205Z,17
2023-09-10T08:40:30.409Z,17
2023-09-10T08:43:55.605Z,17
2023-09-10T08:47:20.815Z,17
2023-09-10T08:50:46.057Z,17
2023-09-10T08:54:11.237Z,17
2023-09-10T08:57:36.392Z,17
2023-09-10T09:01:01.671Z,17
2023-09-10T09:04:26.843Z,17
2023-09-10T09:07:52.071Z,17
2023-09-10T09:11:17.336Z,17
2023-09-10T09:14:42.480Z,17
2023-09-10T09:18:07.709Z,17
2023-09-10T09:21:32.905Z,17
2023-09-10T09:24:58.064Z,23
2023-09-10T09:28:23.336Z,23
2023-09-10T09:31:48.526Z,23
2023-09-10T09:35:13.701Z,23
2023-09-10T09:38:39.110Z,23
2023-09-10T09:42:04.070Z,28
2023-09-10T09:45:29.294Z,28
2023-09-10T09:48:54.490Z,28
2023-09-10T09:52:19.689Z,28
2023-09-10T09:55:44.876Z,34
2023-09-10T09:59:10.159Z,34
2023-09-10T10:02:35.473Z,34
2023-09-10T10:06:00.529Z,34
2023-09-10T10:09:25.735Z,34
2023-09-10T10:12:50.967Z,34
2023-09-10T10:16:16.234Z,34
2023-09-10T10:19:41.416Z,39
2023-09-10T10:23:18.974Z,39
2023-09-10T10:26:31.977Z,45
2023-09-10T10:29:57.041Z,45
2023-09-10T10:33:22.290Z,45
2023-09-10T10:36:47.482Z,45
2023-09-10T10:40:12.653Z,51
2023-09-10T10:43:38.292Z,56
2023-09-10T10:47:03.117Z,56
2023-09-10T10:50:28.369Z,56
2023-09-10T10:53:53.535Z,62
2023-09-10T10:57:18.735Z,68
2023-09-10T11:00:43.963Z,62
2023-09-10T11:04:09.187Z,68
2023-09-10T11:07:34.411Z,68
2023-09-10T11:10:59.730Z,68
2023-09-10T11:14:24.937Z,68
2023-09-10T11:17:52.233Z,68
2023-09-10T11:21:17.819Z,68
2023-09-10T11:24:51.960Z,68
2023-09-10T11:28:26.791Z,62
2023-09-10T11:31:53.519Z,62
2023-09-10T11:35:23.649Z,62
2023-09-10T11:38:48.753Z,62
2023-09-10T11:42:16.865Z,62
2023-09-10T11:45:43.149Z,62
2023-09-10T11:49:16.994Z,62
2023-09-10T11:52:46.361Z,62
2023-09-10T11:56:21.630Z,62
2023-09-10T11:59:47.037Z,62
2023-09-10T12:03:18.243Z,62
2023-09-10T12:06:43.474Z,62
2023-09-10T12:10:08.645Z,62
2023-09-10T12:13:33.893Z,62
2023-09-10T12:16:59.152Z,62
2023-09-10T12:20:24.415Z,56
2023-09-10T12:23:49.558Z,56
2023-09-10T12:27:14.866Z,56
2023-09-10T12:30:40.019Z,56
2023-09-10T12:34:05.616Z,56
2023-09-10T12:37:30.864Z,56
2023-09-10T12:40:56.177Z,56
2023-09-10T12:44:21.398Z,51
2023-09-10T12:47:46.680Z,51
2023-09-10T12:51:12.030Z,51
2023-09-10T12:54:42.969Z,51
2023-09-10T12:58:19.716Z,51
2023-09-10T13:01:57.503Z,45
2023-09-10T13:05:27.889Z,45
2023-09-10T13:08:53.179Z,45
2023-09-10T13:12:18.470Z,45
2023-09-10T13:15:44.504Z,39
2023-09-10T13:19:09.821Z,39
2023-09-10T13:22:35.007Z,39
2023-09-10T13:26:00.218Z,39
2023-09-10T13:29:38.829Z,39
2023-09-10T13:34:35.534Z,39
2023-09-10T13:38:38.661Z,39
2023-09-10T13:42:05.372Z,39
2023-09-10T13:45:53.087Z,34
2023-09-10T13:50:21.922Z,34
2023-09-10T13:54:07.585Z,34
2023-09-10T13:57:59.910Z,34
2023-09-10T14:01:28.892Z,34
2023-09-10T14:05:26.210Z,34
2023-09-10T14:08:57.482Z,34
2023-09-10T14:13:05.829Z,34
2023-09-10T14:16:36.367Z,34
2023-09-10T14:21:04.873Z,34
2023-09-10T14:24:42.262Z,34
2023-09-10T14:28:07.493Z,34
2023-09-10T14:31:32.732Z,28
2023-09-10T14:34:58.015Z,28
2023-09-10T14:38:23.198Z,28
2023-09-10T14:41:48.411Z,28
2023-09-10T14:45:13.632Z,28
2023-09-10T14:48:38.895Z,23
2023-09-10T14:52:04.219Z,28
2023-09-10T14:55:29.495Z,28
2023-09-10T14:58:54.727Z,28
2023-09-10T15:02:20.006Z,28
2023-09-10T15:05:45.182Z,28
2023-09-10T15:09:10.429Z,23
2023-09-10T15:47:32.073Z,6
2023-09-10T15:50:57.283Z,17
2023-09-10T15:54:22.534Z,17
2023-09-10T15:57:47.749Z,17
2023-09-10T16:01:13.046Z,17
2023-09-10T16:04:38.274Z,17
2023-09-10T16:08:03.493Z,17
2023-09-10T16:11:28.734Z,17
2023-09-10T16:14:53.966Z,17
2023-09-10T16:18:19.185Z,17
2023-09-10T16:21:44.423Z,17
2023-09-10T16:25:09.684Z,11
2023-09-10T16:28:34.929Z,11
2023-09-10T16:32:00.192Z,11
2023-09-10T16:35:25.510Z,11
2023-09-10T16:38:50.740Z,11
2023-09-10T16:42:15.871Z,6
2023-09-10T16:45:41.096Z,6
2023-09-10T16:49:06.327Z,6
2023-09-10T16:52:32.319Z,6
2023-09-10T16:55:57.579Z,6
2023-09-10T16:59:22.808Z,0
2023-09-10T17:02:48.097Z,0
2023-09-10T17:06:13.257Z,0
2023-09-10T17:09:38.493Z,0
2023-09-10T17:13:03.743Z,0
2023-09-10T17:16:29.031Z,0
2023-09-10T17:19:54.218Z,0
2023-09-10T17:23:19.505Z,0
2023-09-10T17:26:44.706Z,0
2023-09-10T17:30:09.944Z,0
2023-09-10T17:33:35.154Z,0
2023-09-10T17:37:00.404Z,0
2023-09-10T17:40:25.667Z,0
2023-09-10T17:43:50.893Z,0
2023-09-10T17:47:16.191Z,0
2023-09-10T17:50:41.379Z,0
2023-09-10T17:54:06.576Z,0
2023-09-10T17:57:31.833Z,0
2023-09-10T18:00:57.142Z,0
2023-09-10T18:04:22.508Z,0
2023-09-10T18:07:47.618Z,0
2023-09-10T18:11:12.893Z,0
2023-09-10T18:14:38.131Z,0
2023-09-10T18:18:03.397Z,0
2023-09-10T18:21:28.711Z,0
2023-09-10T18:24:53.962Z,0
2023-09-10T18:28:19.187Z,0
2023-09-10T18:31:44.449Z,0
2023-09-10T18:35:09.698Z,0
2023-09-10T18:38:34.916Z,0
2023-09-10T18:42:00.109Z,0
2023-09-10T18:45:25.328Z,0
2023-09-10T18:48:50.558Z,0
2023-09-10T18:52:15.784Z,0
2023-09-10T18:55:41.028Z,0
2023-09-10T18:59:06.238Z,0
2023-09-10T19:02:35.763Z,0
2023-09-10T19:05:56.676Z,0
2023-09-10T19:09:21.916Z,0
2023-09-10T19:12:47.164Z,0
2023-09-10T19:16:12.426Z,0
2023-09-10T19:19:37.598Z,0
2023-09-10T19:23:02.822Z,0
2023-09-10T19:26:28.077Z,0
2023-09-10T19:29:53.307Z,0
2023-09-10T19:33:18.529Z,0
2023-09-10T19:36:43.684Z,0
2023-09-10T19:40:08.916Z,0
2023-09-10T19:43:34.171Z,0
2023-09-10T19:46:59.490Z,0
2023-09-10T19:50:24.628Z,0
2023-09-10T19:53:49.865Z,0
2023-09-10T19:57:15.036Z,0
2023-09-10T20:00:40.246Z,0
2023-09-10T20:04:05.479Z,0
2023-09-10T20:07:30.692Z,0
2023-09-10T20:10:55.884Z,0
2023-09-10T20:14:21.091Z,0
2023-09-10T20:17:46.330Z,0
2023-09-10T20:21:11.496Z,0
2023-09-10T20:24:36.703Z,0
2023-09-10T20:28:01.873Z,0
2023-09-10T20:31:27.151Z,0
2023-09-10T20:34:52.345Z,0
2023-09-10T20:38:17.621Z,0
2023-09-10T20:41:42.776Z,0
2023-09-10T20:45:07.977Z,0
2023-09-10T20:48:33.202Z,0
2023-09-10T20:51:58.398Z,0
2023-09-10T20:55:23.655Z,0
2023-09-10T20:58:48.859Z,0
2023-09-10T21:02:14.138Z,0
2023-09-10T21:05:39.362Z,0
2023-09-10T21:09:04.536Z,0
2023-09-10T21:12:29.716Z,0
2023-09-10T21:15:54.912Z,0
2023-09-10T21:19:20.167Z,0
2023-09-10T21:22:45.357Z,0
2023-09-10T21:26:10.600Z,0
2023-09-10T21:29:35.835Z,0
2023-09-10T21:33:01.132Z,0
2023-09-10T21:36:26.207Z,0
2023-09-10T21:39:51.433Z,0
2023-09-10T21:43:16.645Z,0
2023-09-10T21:46:41.854Z,0
2023-09-10T21:50:07.071Z,0
2023-09-10T21:53:32.341Z,0
2023-09-10T21:56:57.531Z,0
2023-09-10T22:00:22.771Z,0
2023-09-10T22:03:48.089Z,0
2023-09-10T22:07:13.239Z,0
2023-09-10T22:10:38.395Z,0
2023-09-10T22:14:03.646Z,0
2023-09-10T22:17:28.859Z,0
2023-09-10T22:20:54.035Z,0
2023-09-10T22:24:19.185Z,0
2023-09-10T22:27:44.386Z,0
2023-09-10T22:31:09.617Z,0
2023-09-10T22:34:34.822Z,0
2023-09-10T22:38:00.648Z,0
2023-09-10T22:41:25.338Z,0
2023-09-10T22:44:50.479Z,0
2023-09-10T22:48:15.733Z,0
2023-09-10T22:51:40.879Z,0
2023-09-10T22:55:06.133Z,0
2023-09-10T22:58:31.297Z,0
2023-09-10T23:01:56.500Z,0
2023-09-10T23:05:21.724Z,0
2023-09-10T23:08:46.990Z,0
2023-09-10T23:12:12.119Z,0
2023-09-10T23:15:37.306Z,0
2023-09-10T23:19:02.465Z,0
2023-09-10T23:22:27.628Z,0
2023-09-10T23:25:52.851Z,0
2023-09-10T23:29:18.054Z,0
2023-09-10T23:32:43.217Z,0
2023-09-10T23:36:08.359Z,0
2023-09-10T23:39:33.542Z,0
2023-09-10T23:42:58.728Z,0
2023-09-10T23:46:23.983Z,0
2023-09-10T23:49:49.123Z,0
2023-09-10T23:53:14.333Z,0
2023-09-10T23:56:39.525Z,0
